European Seaway — MPDG3 — position and weather

sailwx.info

Track history (hours):
 
Tides and Currents Weather Stations Pressure Air Temp Water Temp Dewpoint Dewpoint Depression Visibility Wind Speed Wind Dir Waves Ship Positions

European Seaway

Operator: P & O Ferries

Last reported at 2014-Sep-24 01:31 UTC. Time now 2014-Sep-24 02:28 UTC.
Position N 54°25' E 007°34'.

Length 175 m; draft 5.7 m.

Type: Ship. MMSI: 232001040.

Date/timePositionNaut miles runAvg speedWind from/ knotsBaromVisibWave heightAir tempDewpointWater temp
2014-Sep-24 01:31N 54°25' E 007°34'0 0.0
2014-Sep-24 00:25N 54°25' E 007°34'0 0.0
2014-Sep-23 23:25N 54°25' E 007°34'0 0.0
2014-Sep-23 22:28N 54°25' E 007°34'0 0.0
2014-Sep-23 21:25N 54°25' E 007°34'0 0.0
2014-Sep-23 20:31N 54°25' E 007°34'0 0.0
2014-Sep-23 19:25N 54°25' E 007°34'0 0.0
2014-Sep-23 18:31N 54°25' E 007°34'0 0.0
2014-Sep-23 17:31N 54°25' E 007°34'0 0.0
2014-Sep-23 16:19N 54°25' E 007°34'0 0.1
2014-Sep-23 15:31N 54°25' E 007°34'0 0.1
2014-Sep-23 14:28N 54°24' E 007°34'0 0.0
2014-Sep-23 13:31N 54°24' E 007°34'0 0.1
2014-Sep-23 12:31N 54°25' E 007°34'0 0.0
2014-Sep-23 11:28N 54°25' E 007°34'0 0.0
2014-Sep-23 10:31N 54°25' E 007°34'0 0.0
2014-Sep-23 09:25N 54°25' E 007°34'0 0.0
2014-Sep-23 08:31N 54°25' E 007°34'0 0.0
2014-Sep-23 07:28N 54°25' E 007°34'0 0.1
2014-Sep-23 06:22N 54°24' E 007°34'0 0.1
2014-Sep-23 05:33N 54°25' E 007°34'0 0.1
2014-Sep-23 04:33N 54°25' E 007°34'0 0.1
2014-Sep-23 03:33N 54°24' E 007°34'0 0.0
2014-Sep-23 02:31N 54°24' E 007°34'2 2.1
2014-Sep-23 01:34N 54°22' E 007°34'1717.0
2014-Sep-23 00:33N 54°08' E 007°49'1717.1
2014-Sep-22 23:33N 54°00' E 008°15'1515.3
2014-Sep-22 22:34N 53°56' E 008°40'4 4.4
2014-Sep-22 21:32N 53°52' E 008°44'0 0.0
2014-Sep-22 20:32N 53°52' E 008°44'0 0.0
2014-Sep-22 19:32N 53°52' E 008°44'0 0.0
2014-Sep-22 18:32N 53°52' E 008°44'0 0.0
2014-Sep-22 17:32N 53°52' E 008°44'0 0.0
2014-Sep-22 16:32N 53°52' E 008°44'0 0.0
2014-Sep-22 15:32N 53°52' E 008°44'0 0.0
2014-Sep-22 14:32N 53°52' E 008°44'0 0.0
2014-Sep-22 13:32N 53°52' E 008°44'0 0.0
2014-Sep-22 12:32N 53°52' E 008°44'0 0.0
2014-Sep-22 11:32N 53°52' E 008°44'0 0.0
2014-Sep-22 10:32N 53°52' E 008°44'0 0.0
2014-Sep-22 09:32N 53°52' E 008°44'0 0.0
2014-Sep-22 08:32N 53°52' E 008°44'0 0.0
2014-Sep-22 07:32N 53°52' E 008°44'0 0.0
2014-Sep-22 06:32N 53°52' E 008°44'0 0.0
2014-Sep-22 05:32N 53°52' E 008°44'0 0.0
2014-Sep-22 04:32N 53°52' E 008°44'0 0.0
2014-Sep-22 03:32N 53°52' E 008°44'0 0.0
2014-Sep-22 02:32N 53°52' E 008°44'0 0.0
2014-Sep-22 01:34N 53°52' E 008°44'3 3.4
2014-Sep-22 00:34N 53°55' E 008°41'1414.5
2014-Sep-21 23:34N 53°60' E 008°18'1211.5
2014-Sep-21 22:34N 54°01' E 007°58'1616.2
2014-Sep-21 21:33N 54°12' E 007°37'1616.5
2014-Sep-21 20:33N 54°28' E 007°30'0 0.3
2014-Sep-21 19:28N 54°27' E 007°31'4 4.1
2014-Sep-21 18:32N 54°24' E 007°34'0 0.3
2014-Sep-21 17:34N 54°24' E 007°35'0 0.3
2014-Sep-21 16:32N 54°24' E 007°35'0 0.1
2014-Sep-21 15:25N 54°24' E 007°35'0 0.0
2014-Sep-21 14:25N 54°24' E 007°35'0 0.0
2014-Sep-21 13:28N 54°24' E 007°35'0 0.0
2014-Sep-21 12:31N 54°24' E 007°35'0 0.0
2014-Sep-21 11:31N 54°24' E 007°35'0 0.0
2014-Sep-21 10:33N 54°24' E 007°35'0 0.0
2014-Sep-21 09:33N 54°24' E 007°35'0 0.1
2014-Sep-21 08:33N 54°24' E 007°35'0 0.0
2014-Sep-21 07:33N 54°24' E 007°35'0 0.0
2014-Sep-21 06:21N 54°24' E 007°35'0 0.0
2014-Sep-21 05:27N 54°24' E 007°35'0 0.1
2014-Sep-21 04:30N 54°24' E 007°34'0 0.1
2014-Sep-21 03:33N 54°24' E 007°35'0 0.0
2014-Sep-21 02:30N 54°24' E 007°35'0 0.0
2014-Sep-21 01:27N 54°24' E 007°35'0 0.1
2014-Sep-21 00:27N 54°25' E 007°34'0 0.0
2014-Sep-20 23:33N 54°25' E 007°35'0 0.0
2014-Sep-20 22:30N 54°25' E 007°35'0 0.0
2014-Sep-20 21:30N 54°25' E 007°35'0 0.0
2014-Sep-20 20:34N 54°25' E 007°34'0 0.0
2014-Sep-20 19:24N 54°25' E 007°35'0 0.0
2014-Sep-20 18:33N 54°25' E 007°34'0 0.0
2014-Sep-20 17:33N 54°25' E 007°34'0 0.0
2014-Sep-20 16:30N 54°25' E 007°34'0 0.0
2014-Sep-20 15:27N 54°25' E 007°34'0 0.1
2014-Sep-20 14:33N 54°25' E 007°34'0 0.0
2014-Sep-20 13:30N 54°25' E 007°34'0 0.0
2014-Sep-20 12:30N 54°25' E 007°34'0 0.0
2014-Sep-20 11:33N 54°25' E 007°34'0 0.0
2014-Sep-20 10:30N 54°25' E 007°34'0 0.0
2014-Sep-20 09:30N 54°25' E 007°34'0 0.0
2014-Sep-20 08:30N 54°25' E 007°34'0 0.0
2014-Sep-20 07:33N 54°25' E 007°34'0 0.0
2014-Sep-20 06:33N 54°25' E 007°34'0 0.1
2014-Sep-20 05:27N 54°24' E 007°34'0 0.2
2014-Sep-20 04:34N 54°25' E 007°34'0 0.1
2014-Sep-20 03:33N 54°25' E 007°34'0 0.0
2014-Sep-20 02:33N 54°25' E 007°34'0 0.0
2014-Sep-20 01:24N 54°25' E 007°34'0 0.0
2014-Sep-20 00:30N 54°25' E 007°34'0 0.0
2014-Sep-19 23:33N 54°25' E 007°34'0 0.0
2014-Sep-19 22:33N 54°25' E 007°34'0 0.0
2014-Sep-19 21:33N 54°25' E 007°34'0 0.0
2014-Sep-19 20:30N 54°25' E 007°34'0 0.0
2014-Sep-19 19:30N 54°25' E 007°34'0 0.1
2014-Sep-19 18:33N 54°25' E 007°34'0 0.0
2014-Sep-19 17:33N 54°25' E 007°34'0 0.0
2014-Sep-19 16:25N 54°25' E 007°34'0 0.0
2014-Sep-19 15:25N 54°25' E 007°35'0 0.1
2014-Sep-19 14:31N 54°25' E 007°34'0 0.1
2014-Sep-19 13:31N 54°24' E 007°34'0 0.0
2014-Sep-19 12:28N 54°24' E 007°34'0 0.0
2014-Sep-19 11:31N 54°24' E 007°34'0 0.0
2014-Sep-19 10:31N 54°24' E 007°34'0 0.0
2014-Sep-19 09:31N 54°24' E 007°34'0 0.0
2014-Sep-19 08:31N 54°24' E 007°34'0 0.1
2014-Sep-19 07:16N 54°25' E 007°34'0 0.2
2014-Sep-19 06:31N 54°24' E 007°35'0 0.2
2014-Sep-19 05:31N 54°25' E 007°34'0 0.2
2014-Sep-19 04:31N 54°25' E 007°34'0 0.0
2014-Sep-19 03:25N 54°25' E 007°34'0 0.0
2014-Sep-19 02:31N 54°25' E 007°34'0 0.0
2014-Sep-19 01:31N 54°25' E 007°34'0 0.0
2014-Sep-19 00:31N 54°25' E 007°34'0 0.0
2014-Sep-18 23:28N 54°25' E 007°34'0 0.0
2014-Sep-18 22:28N 54°25' E 007°34'0 0.0
2014-Sep-18 21:28N 54°25' E 007°34'0 0.0
2014-Sep-18 20:31N 54°25' E 007°34'0 0.0
2014-Sep-18 19:31N 54°25' E 007°34'0 0.0
2014-Sep-18 18:31N 54°25' E 007°34'0 0.0
2014-Sep-18 17:25N 54°25' E 007°34'0 0.1
2014-Sep-18 16:31N 54°25' E 007°34'0 0.1
2014-Sep-18 15:31N 54°25' E 007°34'0 0.2
2014-Sep-18 14:25N 54°24' E 007°34'0 0.0
2014-Sep-18 13:22N 54°25' E 007°34'0 0.0
2014-Sep-18 12:31N 54°24' E 007°34'0 0.0
2014-Sep-18 11:31N 54°24' E 007°34'0 0.0
2014-Sep-18 10:28N 54°25' E 007°34'0 0.0
2014-Sep-18 09:27N 54°24' E 007°34'0 0.0
2014-Sep-18 08:28N 54°24' E 007°34'0 0.0
2014-Sep-18 07:31N 54°24' E 007°34'0 0.0
2014-Sep-18 06:31N 54°24' E 007°34'0 0.0
2014-Sep-18 05:33N 54°24' E 007°34'0 0.0
2014-Sep-18 04:33N 54°24' E 007°34'0 0.0
2014-Sep-18 03:33N 54°24' E 007°34'0 0.0
2014-Sep-18 02:33N 54°24' E 007°34'0 0.0
2014-Sep-18 01:33N 54°24' E 007°34'0 0.0
2014-Sep-18 00:33N 54°24' E 007°34'0 0.1
2014-Sep-17 23:33N 54°24' E 007°34'0 0.0
2014-Sep-17 22:33N 54°24' E 007°34'8 7.8
2014-Sep-17 21:34N 54°17' E 007°34'1818.0
2014-Sep-17 20:33N 54°04' E 007°56'1817.8
2014-Sep-17 19:34N 53°59' E 008°25'1312.8
2014-Sep-17 18:33N 53°52' E 008°44'0 0.0
2014-Sep-17 17:33N 53°52' E 008°44'0 0.0
2014-Sep-17 16:33N 53°52' E 008°44'0 0.0
2014-Sep-17 15:33N 53°52' E 008°44'0 0.0
2014-Sep-17 14:33N 53°52' E 008°44'0 0.0
2014-Sep-17 13:33N 53°52' E 008°44'0 0.0
2014-Sep-17 12:33N 53°52' E 008°44'0 0.0
2014-Sep-17 11:33N 53°52' E 008°44'0 0.0
2014-Sep-17 10:33N 53°52' E 008°44'0 0.0
2014-Sep-17 09:33N 53°52' E 008°44'0 0.0
2014-Sep-17 08:33N 53°52' E 008°44'0 0.0
2014-Sep-17 07:33N 53°52' E 008°44'0 0.0
2014-Sep-17 06:33N 53°52' E 008°44'0 0.0
2014-Sep-17 05:33N 53°52' E 008°44'0 0.0
2014-Sep-17 04:33N 53°52' E 008°44'1 0.7
2014-Sep-17 03:33N 53°52' E 008°43'1515.2
2014-Sep-17 02:33N 53°59' E 008°20'6 6.2
2014-Sep-17 01:33N 54°02' E 008°11'0 0.0
2014-Sep-17 00:33N 54°02' E 008°11'0 0.0
2014-Sep-16 23:33N 54°02' E 008°11'0 0.0
2014-Sep-16 22:33N 54°02' E 008°11'0 0.0
2014-Sep-16 21:33N 54°02' E 008°11'0 0.0
2014-Sep-16 20:33N 54°02' E 008°11'1111.4
2014-Sep-16 19:33N 54°03' E 007°51'1616.0
2014-Sep-16 18:33N 54°16' E 007°34'9 8.4
2014-Sep-16 17:31N 54°25' E 007°34'0 0.1
2014-Sep-16 16:31N 54°25' E 007°34'0 0.1
2014-Sep-16 15:31N 54°25' E 007°34'0 0.1
2014-Sep-16 14:31N 54°25' E 007°34'0 0.0
2014-Sep-16 13:22N 54°25' E 007°34'0 0.0
2014-Sep-16 12:25N 54°25' E 007°34'0 0.1
2014-Sep-16 11:31N 54°25' E 007°34'0 0.1
2014-Sep-16 10:28N 54°25' E 007°34'0 0.0
2014-Sep-16 09:31N 54°25' E 007°34'0 0.1
2014-Sep-16 08:31N 54°25' E 007°34'0 0.1
2014-Sep-16 07:31N 54°25' E 007°34'0 0.1
2014-Sep-16 06:31N 54°25' E 007°34'0 0.1
2014-Sep-16 05:25N 54°25' E 007°34'0 0.0
2014-Sep-16 04:31N 54°25' E 007°34'0 0.0
2014-Sep-16 03:31N 54°25' E 007°34'0 0.1
2014-Sep-16 02:31N 54°25' E 007°34'0 0.0
2014-Sep-16 01:28N 54°25' E 007°34'0 0.0
2014-Sep-16 00:31N 54°25' E 007°34'0 0.0
2014-Sep-15 23:28N 54°25' E 007°34'0 0.1
2014-Sep-15 22:28N 54°25' E 007°34'0 0.0
2014-Sep-15 21:28N 54°25' E 007°34'0 0.0
2014-Sep-15 20:31N 54°25' E 007°34'0 0.1
2014-Sep-15 19:31N 54°25' E 007°34'0 0.0
2014-Sep-15 18:28N 54°25' E 007°34'0 0.0
2014-Sep-15 17:25N 54°25' E 007°34'0 0.0
2014-Sep-15 16:31N 54°25' E 007°34'0 0.1
2014-Sep-15 15:31N 54°25' E 007°34'0 0.0
2014-Sep-15 14:31N 54°25' E 007°34'0 0.0
2014-Sep-15 13:31N 54°25' E 007°34'0 0.0
2014-Sep-15 12:31N 54°25' E 007°35'0 0.0
2014-Sep-15 11:13N 54°25' E 007°34'0 0.0
2014-Sep-15 10:31N 54°25' E 007°34'0 0.0
2014-Sep-15 09:31N 54°25' E 007°34'0 0.2
2014-Sep-15 08:31N 54°25' E 007°34'0 0.0
2014-Sep-15 07:31N 54°25' E 007°34'0 0.0
2014-Sep-15 06:31N 54°25' E 007°34'0 0.0
2014-Sep-15 05:31N 54°25' E 007°34'0 0.1
2014-Sep-15 04:31N 54°24' E 007°34'0 0.0
2014-Sep-15 03:31N 54°24' E 007°34'0 0.0
2014-Sep-15 02:28N 54°24' E 007°34'0 0.1
2014-Sep-15 01:31N 54°24' E 007°34'0 0.0
2014-Sep-15 00:31N 54°24' E 007°34'0 0.0
2014-Sep-14 23:31N 54°24' E 007°34'0 0.0
2014-Sep-14 22:28N 54°24' E 007°34'0 0.0
2014-Sep-14 21:31N 54°24' E 007°34'0 0.0
2014-Sep-14 20:31N 54°24' E 007°34'0 0.0
2014-Sep-14 19:31N 54°24' E 007°34'0 0.0
2014-Sep-14 18:31N 54°24' E 007°34'0 0.0
2014-Sep-14 17:31N 54°24' E 007°34'0 0.0
2014-Sep-14 16:19N 54°24' E 007°34'0 0.1
2014-Sep-14 15:31N 54°24' E 007°34'0 0.0
2014-Sep-14 14:31N 54°24' E 007°34'0 0.0
2014-Sep-14 13:31N 54°24' E 007°34'0 0.0
2014-Sep-14 12:31N 54°24' E 007°34'0 0.0
2014-Sep-14 11:25N 54°24' E 007°34'0 0.0
2014-Sep-14 10:31N 54°24' E 007°34'0 0.1
2014-Sep-14 09:31N 54°24' E 007°34'0 0.1
2014-Sep-14 08:31N 54°24' E 007°34'0 0.1
2014-Sep-14 07:31N 54°24' E 007°34'0 0.0
2014-Sep-14 06:33N 54°24' E 007°34'0 0.1
2014-Sep-14 05:27N 54°25' E 007°35'0 0.0
2014-Sep-14 04:33N 54°25' E 007°35'0 0.1
2014-Sep-14 03:33N 54°24' E 007°34'0 0.1
2014-Sep-14 02:33N 54°24' E 007°34'  
Track history (hours):
 
Tides and Currents Weather Stations Pressure Air Temp Water Temp Dewpoint Dewpoint Depression Visibility Wind Speed Wind Dir Waves Ship Positions

European Seaway

Operator: P & O Ferries

Last reported at 2014-Sep-24 01:31 UTC. Time now 2014-Sep-24 02:28 UTC.
Position N 54°25' E 007°34'.

Length 175 m; draft 5.7 m.

Type: Ship. MMSI: 232001040.

Date/timePositionNaut miles runAvg speedWind from/ knotsBaromVisibWave heightAir tempDewpointWater temp
2014-Sep-24 01:31N 54°25' E 007°34'0 0.0
2014-Sep-24 00:25N 54°25' E 007°34'0 0.0
2014-Sep-23 23:25N 54°25' E 007°34'0 0.0
2014-Sep-23 22:28N 54°25' E 007°34'0 0.0
2014-Sep-23 21:25N 54°25' E 007°34'0 0.0
2014-Sep-23 20:31N 54°25' E 007°34'0 0.0
2014-Sep-23 19:25N 54°25' E 007°34'0 0.0
2014-Sep-23 18:31N 54°25' E 007°34'0 0.0
2014-Sep-23 17:31N 54°25' E 007°34'0 0.0
2014-Sep-23 16:19N 54°25' E 007°34'0 0.1
2014-Sep-23 15:31N 54°25' E 007°34'0 0.1
2014-Sep-23 14:28N 54°24' E 007°34'0 0.0
2014-Sep-23 13:31N 54°24' E 007°34'0 0.1
2014-Sep-23 12:31N 54°25' E 007°34'0 0.0
2014-Sep-23 11:28N 54°25' E 007°34'0 0.0
2014-Sep-23 10:31N 54°25' E 007°34'0 0.0
2014-Sep-23 09:25N 54°25' E 007°34'0 0.0
2014-Sep-23 08:31N 54°25' E 007°34'0 0.0
2014-Sep-23 07:28N 54°25' E 007°34'0 0.1
2014-Sep-23 06:22N 54°24' E 007°34'0 0.1
2014-Sep-23 05:33N 54°25' E 007°34'0 0.1
2014-Sep-23 04:33N 54°25' E 007°34'0 0.1
2014-Sep-23 03:33N 54°24' E 007°34'0 0.0
2014-Sep-23 02:31N 54°24' E 007°34'2 2.1
2014-Sep-23 01:34N 54°22' E 007°34'1717.0
2014-Sep-23 00:33N 54°08' E 007°49'1717.1
2014-Sep-22 23:33N 54°00' E 008°15'1515.3
2014-Sep-22 22:34N 53°56' E 008°40'4 4.4
2014-Sep-22 21:32N 53°52' E 008°44'0 0.0
2014-Sep-22 20:32N 53°52' E 008°44'0 0.0
2014-Sep-22 19:32N 53°52' E 008°44'0 0.0
2014-Sep-22 18:32N 53°52' E 008°44'0 0.0
2014-Sep-22 17:32N 53°52' E 008°44'0 0.0
2014-Sep-22 16:32N 53°52' E 008°44'0 0.0
2014-Sep-22 15:32N 53°52' E 008°44'0 0.0
2014-Sep-22 14:32N 53°52' E 008°44'0 0.0
2014-Sep-22 13:32N 53°52' E 008°44'0 0.0
2014-Sep-22 12:32N 53°52' E 008°44'0 0.0
2014-Sep-22 11:32N 53°52' E 008°44'0 0.0
2014-Sep-22 10:32N 53°52' E 008°44'0 0.0
2014-Sep-22 09:32N 53°52' E 008°44'0 0.0
2014-Sep-22 08:32N 53°52' E 008°44'0 0.0
2014-Sep-22 07:32N 53°52' E 008°44'0 0.0
2014-Sep-22 06:32N 53°52' E 008°44'0 0.0
2014-Sep-22 05:32N 53°52' E 008°44'0 0.0
2014-Sep-22 04:32N 53°52' E 008°44'0 0.0
2014-Sep-22 03:32N 53°52' E 008°44'0 0.0
2014-Sep-22 02:32N 53°52' E 008°44'0 0.0
2014-Sep-22 01:34N 53°52' E 008°44'3 3.4
2014-Sep-22 00:34N 53°55' E 008°41'1414.5
2014-Sep-21 23:34N 53°60' E 008°18'1211.5
2014-Sep-21 22:34N 54°01' E 007°58'1616.2
2014-Sep-21 21:33N 54°12' E 007°37'1616.5
2014-Sep-21 20:33N 54°28' E 007°30'0 0.3
2014-Sep-21 19:28N 54°27' E 007°31'4 4.1
2014-Sep-21 18:32N 54°24' E 007°34'0 0.3
2014-Sep-21 17:34N 54°24' E 007°35'0 0.3
2014-Sep-21 16:32N 54°24' E 007°35'0 0.1
2014-Sep-21 15:25N 54°24' E 007°35'0 0.0
2014-Sep-21 14:25N 54°24' E 007°35'0 0.0
2014-Sep-21 13:28N 54°24' E 007°35'0 0.0
2014-Sep-21 12:31N 54°24' E 007°35'0 0.0
2014-Sep-21 11:31N 54°24' E 007°35'0 0.0
2014-Sep-21 10:33N 54°24' E 007°35'0 0.0
2014-Sep-21 09:33N 54°24' E 007°35'0 0.1
2014-Sep-21 08:33N 54°24' E 007°35'0 0.0
2014-Sep-21 07:33N 54°24' E 007°35'0 0.0
2014-Sep-21 06:21N 54°24' E 007°35'0 0.0
2014-Sep-21 05:27N 54°24' E 007°35'0 0.1
2014-Sep-21 04:30N 54°24' E 007°34'0 0.1
2014-Sep-21 03:33N 54°24' E 007°35'0 0.0
2014-Sep-21 02:30N 54°24' E 007°35'0 0.0
2014-Sep-21 01:27N 54°24' E 007°35'0 0.1
2014-Sep-21 00:27N 54°25' E 007°34'0 0.0
2014-Sep-20 23:33N 54°25' E 007°35'0 0.0
2014-Sep-20 22:30N 54°25' E 007°35'0 0.0
2014-Sep-20 21:30N 54°25' E 007°35'0 0.0
2014-Sep-20 20:34N 54°25' E 007°34'0 0.0
2014-Sep-20 19:24N 54°25' E 007°35'0 0.0
2014-Sep-20 18:33N 54°25' E 007°34'0 0.0
2014-Sep-20 17:33N 54°25' E 007°34'0 0.0
2014-Sep-20 16:30N 54°25' E 007°34'0 0.0
2014-Sep-20 15:27N 54°25' E 007°34'0 0.1
2014-Sep-20 14:33N 54°25' E 007°34'0 0.0
2014-Sep-20 13:30N 54°25' E 007°34'0 0.0
2014-Sep-20 12:30N 54°25' E 007°34'0 0.0
2014-Sep-20 11:33N 54°25' E 007°34'0 0.0
2014-Sep-20 10:30N 54°25' E 007°34'0 0.0
2014-Sep-20 09:30N 54°25' E 007°34'0 0.0
2014-Sep-20 08:30N 54°25' E 007°34'0 0.0
2014-Sep-20 07:33N 54°25' E 007°34'0 0.0
2014-Sep-20 06:33N 54°25' E 007°34'0 0.1
2014-Sep-20 05:27N 54°24' E 007°34'0 0.2
2014-Sep-20 04:34N 54°25' E 007°34'0 0.1
2014-Sep-20 03:33N 54°25' E 007°34'0 0.0
2014-Sep-20 02:33N 54°25' E 007°34'0 0.0
2014-Sep-20 01:24N 54°25' E 007°34'0 0.0
2014-Sep-20 00:30N 54°25' E 007°34'0 0.0
2014-Sep-19 23:33N 54°25' E 007°34'0 0.0
2014-Sep-19 22:33N 54°25' E 007°34'0 0.0
2014-Sep-19 21:33N 54°25' E 007°34'0 0.0
2014-Sep-19 20:30N 54°25' E 007°34'0 0.0
2014-Sep-19 19:30N 54°25' E 007°34'0 0.1
2014-Sep-19 18:33N 54°25' E 007°34'0 0.0
2014-Sep-19 17:33N 54°25' E 007°34'0 0.0
2014-Sep-19 16:25N 54°25' E 007°34'0 0.0
2014-Sep-19 15:25N 54°25' E 007°35'0 0.1
2014-Sep-19 14:31N 54°25' E 007°34'0 0.1
2014-Sep-19 13:31N 54°24' E 007°34'0 0.0
2014-Sep-19 12:28N 54°24' E 007°34'0 0.0
2014-Sep-19 11:31N 54°24' E 007°34'0 0.0
2014-Sep-19 10:31N 54°24' E 007°34'0 0.0
2014-Sep-19 09:31N 54°24' E 007°34'0 0.0
2014-Sep-19 08:31N 54°24' E 007°34'0 0.1
2014-Sep-19 07:16N 54°25' E 007°34'0 0.2
2014-Sep-19 06:31N 54°24' E 007°35'0 0.2
2014-Sep-19 05:31N 54°25' E 007°34'0 0.2
2014-Sep-19 04:31N 54°25' E 007°34'0 0.0
2014-Sep-19 03:25N 54°25' E 007°34'0 0.0
2014-Sep-19 02:31N 54°25' E 007°34'0 0.0
2014-Sep-19 01:31N 54°25' E 007°34'0 0.0
2014-Sep-19 00:31N 54°25' E 007°34'0 0.0
2014-Sep-18 23:28N 54°25' E 007°34'0 0.0
2014-Sep-18 22:28N 54°25' E 007°34'0 0.0
2014-Sep-18 21:28N 54°25' E 007°34'0 0.0
2014-Sep-18 20:31N 54°25' E 007°34'0 0.0
2014-Sep-18 19:31N 54°25' E 007°34'0 0.0
2014-Sep-18 18:31N 54°25' E 007°34'0 0.0
2014-Sep-18 17:25N 54°25' E 007°34'0 0.1
2014-Sep-18 16:31N 54°25' E 007°34'0 0.1
2014-Sep-18 15:31N 54°25' E 007°34'0 0.2
2014-Sep-18 14:25N 54°24' E 007°34'0 0.0
2014-Sep-18 13:22N 54°25' E 007°34'0 0.0
2014-Sep-18 12:31N 54°24' E 007°34'0 0.0
2014-Sep-18 11:31N 54°24' E 007°34'0 0.0
2014-Sep-18 10:28N 54°25' E 007°34'0 0.0
2014-Sep-18 09:27N 54°24' E 007°34'0 0.0
2014-Sep-18 08:28N 54°24' E 007°34'0 0.0
2014-Sep-18 07:31N 54°24' E 007°34'0 0.0
2014-Sep-18 06:31N 54°24' E 007°34'0 0.0
2014-Sep-18 05:33N 54°24' E 007°34'0 0.0
2014-Sep-18 04:33N 54°24' E 007°34'0 0.0
2014-Sep-18 03:33N 54°24' E 007°34'0 0.0
2014-Sep-18 02:33N 54°24' E 007°34'0 0.0
2014-Sep-18 01:33N 54°24' E 007°34'0 0.0
2014-Sep-18 00:33N 54°24' E 007°34'0 0.1
2014-Sep-17 23:33N 54°24' E 007°34'0 0.0
2014-Sep-17 22:33N 54°24' E 007°34'8 7.8
2014-Sep-17 21:34N 54°17' E 007°34'1818.0
2014-Sep-17 20:33N 54°04' E 007°56'1817.8
2014-Sep-17 19:34N 53°59' E 008°25'1312.8
2014-Sep-17 18:33N 53°52' E 008°44'0 0.0
2014-Sep-17 17:33N 53°52' E 008°44'0 0.0
2014-Sep-17 16:33N 53°52' E 008°44'0 0.0
2014-Sep-17 15:33N 53°52' E 008°44'0 0.0
2014-Sep-17 14:33N 53°52' E 008°44'0 0.0
2014-Sep-17 13:33N 53°52' E 008°44'0 0.0
2014-Sep-17 12:33N 53°52' E 008°44'0 0.0
2014-Sep-17 11:33N 53°52' E 008°44'0 0.0
2014-Sep-17 10:33N 53°52' E 008°44'0 0.0
2014-Sep-17 09:33N 53°52' E 008°44'0 0.0
2014-Sep-17 08:33N 53°52' E 008°44'0 0.0
2014-Sep-17 07:33N 53°52' E 008°44'0 0.0
2014-Sep-17 06:33N 53°52' E 008°44'0 0.0
2014-Sep-17 05:33N 53°52' E 008°44'0 0.0
2014-Sep-17 04:33N 53°52' E 008°44'1 0.7
2014-Sep-17 03:33N 53°52' E 008°43'1515.2
2014-Sep-17 02:33N 53°59' E 008°20'6 6.2
2014-Sep-17 01:33N 54°02' E 008°11'0 0.0
2014-Sep-17 00:33N 54°02' E 008°11'0 0.0
2014-Sep-16 23:33N 54°02' E 008°11'0 0.0
2014-Sep-16 22:33N 54°02' E 008°11'0 0.0
2014-Sep-16 21:33N 54°02' E 008°11'0 0.0
2014-Sep-16 20:33N 54°02' E 008°11'1111.4
2014-Sep-16 19:33N 54°03' E 007°51'1616.0
2014-Sep-16 18:33N 54°16' E 007°34'9 8.4
2014-Sep-16 17:31N 54°25' E 007°34'0 0.1
2014-Sep-16 16:31N 54°25' E 007°34'0 0.1
2014-Sep-16 15:31N 54°25' E 007°34'0 0.1
2014-Sep-16 14:31N 54°25' E 007°34'0 0.0
2014-Sep-16 13:22N 54°25' E 007°34'0 0.0
2014-Sep-16 12:25N 54°25' E 007°34'0 0.1
2014-Sep-16 11:31N 54°25' E 007°34'0 0.1
2014-Sep-16 10:28N 54°25' E 007°34'0 0.0
2014-Sep-16 09:31N 54°25' E 007°34'0 0.1
2014-Sep-16 08:31N 54°25' E 007°34'0 0.1
2014-Sep-16 07:31N 54°25' E 007°34'0 0.1
2014-Sep-16 06:31N 54°25' E 007°34'0 0.1
2014-Sep-16 05:25N 54°25' E 007°34'0 0.0
2014-Sep-16 04:31N 54°25' E 007°34'0 0.0
2014-Sep-16 03:31N 54°25' E 007°34'0 0.1
2014-Sep-16 02:31N 54°25' E 007°34'0 0.0
2014-Sep-16 01:28N 54°25' E 007°34'0 0.0
2014-Sep-16 00:31N 54°25' E 007°34'0 0.0
2014-Sep-15 23:28N 54°25' E 007°34'0 0.1
2014-Sep-15 22:28N 54°25' E 007°34'0 0.0
2014-Sep-15 21:28N 54°25' E 007°34'0 0.0
2014-Sep-15 20:31N 54°25' E 007°34'0 0.1
2014-Sep-15 19:31N 54°25' E 007°34'0 0.0
2014-Sep-15 18:28N 54°25' E 007°34'0 0.0
2014-Sep-15 17:25N 54°25' E 007°34'0 0.0
2014-Sep-15 16:31N 54°25' E 007°34'0 0.1
2014-Sep-15 15:31N 54°25' E 007°34'0 0.0
2014-Sep-15 14:31N 54°25' E 007°34'0 0.0
2014-Sep-15 13:31N 54°25' E 007°34'0 0.0
2014-Sep-15 12:31N 54°25' E 007°35'0 0.0
2014-Sep-15 11:13N 54°25' E 007°34'0 0.0
2014-Sep-15 10:31N 54°25' E 007°34'0 0.0
2014-Sep-15 09:31N 54°25' E 007°34'0 0.2
2014-Sep-15 08:31N 54°25' E 007°34'0 0.0
2014-Sep-15 07:31N 54°25' E 007°34'0 0.0
2014-Sep-15 06:31N 54°25' E 007°34'0 0.0
2014-Sep-15 05:31N 54°25' E 007°34'0 0.1
2014-Sep-15 04:31N 54°24' E 007°34'0 0.0
2014-Sep-15 03:31N 54°24' E 007°34'0 0.0
2014-Sep-15 02:28N 54°24' E 007°34'0 0.1
2014-Sep-15 01:31N 54°24' E 007°34'0 0.0
2014-Sep-15 00:31N 54°24' E 007°34'0 0.0
2014-Sep-14 23:31N 54°24' E 007°34'0 0.0
2014-Sep-14 22:28N 54°24' E 007°34'0 0.0
2014-Sep-14 21:31N 54°24' E 007°34'0 0.0
2014-Sep-14 20:31N 54°24' E 007°34'0 0.0
2014-Sep-14 19:31N 54°24' E 007°34'0 0.0
2014-Sep-14 18:31N 54°24' E 007°34'0 0.0
2014-Sep-14 17:31N 54°24' E 007°34'0 0.0
2014-Sep-14 16:19N 54°24' E 007°34'0 0.1
2014-Sep-14 15:31N 54°24' E 007°34'0 0.0
2014-Sep-14 14:31N 54°24' E 007°34'0 0.0
2014-Sep-14 13:31N 54°24' E 007°34'0 0.0
2014-Sep-14 12:31N 54°24' E 007°34'0 0.0
2014-Sep-14 11:25N 54°24' E 007°34'0 0.0
2014-Sep-14 10:31N 54°24' E 007°34'0 0.1
2014-Sep-14 09:31N 54°24' E 007°34'0 0.1
2014-Sep-14 08:31N 54°24' E 007°34'0 0.1
2014-Sep-14 07:31N 54°24' E 007°34'0 0.0
2014-Sep-14 06:33N 54°24' E 007°34'0 0.1
2014-Sep-14 05:27N 54°25' E 007°35'0 0.0
2014-Sep-14 04:33N 54°25' E 007°35'0 0.1
2014-Sep-14 03:33N 54°24' E 007°34'0 0.1
2014-Sep-14 02:33N 54°24' E 007°34'  

Dump ship's entire track history